Time;durP1;ratioP1;P1;durP2;ratioP2;P2;SDS_P1;SDS_P2;PMS_P1;PMS_P2;Temp;Humidity;BMP_temperature;BMP_pressure;BME280_temperature;BME280_humidity;BME280_pressure;Samples;Min_cycle;Max_cycle;Signal;HPM_P1;HPM_P2
2021/05/05 00:02:12;;;;;;;7.55;3.42;;;7.50;99.90;;;;;;5095512;28;20356;-67
2021/05/05 00:04:37;;;;;;;8.65;3.53;;;7.50;99.90;;;;;;5093780;28;20077;-67
2021/05/05 00:07:03;;;;;;;8.32;3.72;;;7.40;99.90;;;;;;5095427;28;20457;-67
2021/05/05 00:09:28;;;;;;;6.38;3.88;;;7.40;99.90;;;;;;5094153;28;20028;-67
2021/05/05 00:11:54;;;;;;;5.55;3.92;;;7.30;99.90;;;;;;5095326;28;20024;-67
2021/05/05 00:14:20;;;;;;;7.70;4.07;;;7.30;99.90;;;;;;5095010;28;20032;-67
2021/05/05 00:16:47;;;;;;;11.50;4.65;;;7.30;99.90;;;;;;5095242;28;20362;-67
2021/05/05 00:19:13;;;;;;;9.23;4.28;;;7.20;99.90;;;;;;5094906;28;20024;-67
2021/05/05 00:21:39;;;;;;;8.18;4.28;;;7.20;99.90;;;;;;5094893;28;20385;-67
2021/05/05 00:24:06;;;;;;;8.48;4.30;;;7.20;99.90;;;;;;5095117;28;20024;-67
2021/05/05 00:26:31;;;;;;;7.55;4.28;;;7.10;99.90;;;;;;5095041;28;20028;-67
2021/05/05 00:28:57;;;;;;;6.43;4.30;;;7.00;99.90;;;;;;5094348;28;20054;-67
2021/05/05 00:31:24;;;;;;;10.85;4.20;;;7.10;99.90;;;;;;5094974;28;20028;-67
2021/05/05 00:33:50;;;;;;;8.07;3.95;;;7.20;99.90;;;;;;5094953;28;20043;-67
2021/05/05 00:36:15;;;;;;;10.98;4.03;;;7.30;99.90;;;;;;5094881;28;20476;-67
2021/05/05 00:38:41;;;;;;;8.77;4.32;;;7.30;99.90;;;;;;5094825;28;20361;-67
2021/05/05 00:41:08;;;;;;;7.10;3.58;;;7.30;99.90;;;;;;5093260;28;20062;-67
2021/05/05 00:43:34;;;;;;;7.88;4.55;;;7.40;99.90;;;;;;5094732;28;20028;-67
2021/05/05 00:46:00;;;;;;;8.27;4.03;;;7.30;99.90;;;;;;5093178;28;20084;-67
2021/05/05 00:48:26;;;;;;;10.50;4.22;;;7.30;99.90;;;;;;5094034;28;20119;-67
2021/05/05 00:50:51;;;;;;;7.20;4.18;;;7.30;99.90;;;;;;5094630;28;20480;-67
2021/05/05 00:53:17;;;;;;;10.32;4.72;;;7.40;99.90;;;;;;5094599;28;20024;-67
2021/05/05 00:55:42;;;;;;;6.00;4.07;;;7.40;99.90;;;;;;5093981;28;20024;-67
2021/05/05 00:58:08;;;;;;;8.23;4.28;;;7.40;99.90;;;;;;5094257;28;20381;-67
2021/05/05 01:00:34;;;;;;;9.77;4.45;;;7.40;99.90;;;;;;5093928;28;20016;-67
2021/05/05 01:03:00;;;;;;;6.90;4.10;;;7.50;99.90;;;;;;5094235;28;20365;-67
2021/05/05 01:05:26;;;;;;;9.70;4.35;;;7.50;99.90;;;;;;5093821;28;20032;-67
2021/05/05 01:07:51;;;;;;;6.45;3.72;;;7.50;99.90;;;;;;5094038;28;20035;-67
2021/05/05 01:10:18;;;;;;;6.50;3.85;;;7.50;99.90;;;;;;5094346;28;20030;-67
2021/05/05 01:12:44;;;;;;;10.10;4.07;;;7.50;99.90;;;;;;5094019;28;20020;-67
2021/05/05 01:15:11;;;;;;;5.63;4.25;;;7.60;99.90;;;;;;5094272;28;20089;-67
2021/05/05 01:17:37;;;;;;;7.80;4.15;;;7.60;99.90;;;;;;5094281;28;20103;-67
2021/05/05 01:20:04;;;;;;;9.10;4.70;;;7.60;99.90;;;;;;5094220;28;20044;-67
2021/05/05 01:22:29;;;;;;;12.80;5.32;;;7.60;99.90;;;;;;5094205;28;20089;-67
2021/05/05 01:24:55;;;;;;;10.52;5.43;;;7.50;99.90;;;;;;5094180;28;20470;-67
2021/05/05 01:27:20;;;;;;;10.45;5.45;;;7.50;99.90;;;;;;5093825;28;20569;-67
2021/05/05 01:29:49;;;;;;;10.18;5.28;;;7.50;99.90;;;;;;5094122;28;20027;-67
2021/05/05 01:32:15;;;;;;;9.70;5.80;;;7.50;99.90;;;;;;5093552;28;20118;-67
2021/05/05 01:34:41;;;;;;;8.90;5.30;;;7.50;99.90;;;;;;5093521;28;20024;-67
2021/05/05 01:37:07;;;;;;;10.75;5.35;;;7.50;99.90;;;;;;5094088;28;20108;-67
2021/05/05 01:39:33;;;;;;;6.80;4.85;;;7.50;99.90;;;;;;5093506;28;20038;-67
2021/05/05 01:41:59;;;;;;;7.03;5.28;;;7.50;99.90;;;;;;5094060;28;20028;-67
2021/05/05 01:44:34;;;;;;;7.55;5.10;;;7.60;99.90;;;;;;5092281;28;20119;-67
2021/05/05 01:47:00;;;;;;;12.98;7.72;;;7.50;99.90;;;;;;5093710;28;20027;-67
2021/05/05 01:49:26;;;;;;;13.48;7.78;;;7.50;99.90;;;;;;5093648;28;20039;-67
2021/05/05 01:51:55;;;;;;;11.35;7.18;;;7.40;99.90;;;;;;5093668;28;20129;-67
2021/05/05 01:54:23;;;;;;;14.57;7.72;;;7.50;99.90;;;;;;5093881;28;20377;-67
2021/05/05 01:56:49;;;;;;;10.38;7.53;;;7.50;99.90;;;;;;5092475;28;20077;-67
2021/05/05 01:59:15;;;;;;;10.40;7.53;;;7.50;99.90;;;;;;5092407;28;20032;-67
2021/05/05 02:01:40;;;;;;;11.73;7.75;;;7.40;99.90;;;;;;5093837;28;20117;-67
2021/05/05 02:04:06;;;;;;;15.02;8.35;;;7.40;99.90;;;;;;5093847;28;20031;-67
2021/05/05 02:06:32;;;;;;;10.35;7.15;;;7.40;99.90;;;;;;5093787;28;20136;-67
2021/05/05 02:08:59;;;;;;;10.20;5.75;;;7.40;99.90;;;;;;5093178;28;20036;-67
2021/05/05 02:11:25;;;;;;;16.55;8.00;;;7.40;99.90;;;;;;5093771;28;20097;-67
2021/05/05 02:13:51;;;;;;;10.80;6.10;;;7.40;99.90;;;;;;5091907;28;20024;-67
2021/05/05 02:16:17;;;;;;;8.15;5.30;;;7.40;99.90;;;;;;5097177;28;20028;-67
2021/05/05 02:18:42;;;;;;;9.85;5.45;;;7.30;99.90;;;;;;5097265;28;20028;-67
2021/05/05 02:21:08;;;;;;;8.80;4.95;;;7.30;99.90;;;;;;5097485;28;20032;-67
2021/05/05 02:23:34;;;;;;;7.55;4.38;;;7.30;99.90;;;;;;5095624;28;20028;-67
2021/05/05 02:26:01;;;;;;;5.70;4.15;;;7.30;99.90;;;;;;5097411;28;20472;-67
2021/05/05 02:28:26;;;;;;;6.72;5.05;;;7.30;99.90;;;;;;5096662;28;20069;-67
2021/05/05 02:30:53;;;;;;;7.05;3.47;;;7.30;99.90;;;;;;5097311;28;20032;-67
2021/05/05 02:33:19;;;;;;;3.97;3.50;;;7.30;99.90;;;;;;5097271;28;20061;-67
2021/05/05 02:35:44;;;;;;;6.78;3.65;;;7.30;99.90;;;;;;5096956;28;20373;-67
2021/05/05 02:38:10;;;;;;;6.90;3.58;;;7.20;99.90;;;;;;5097181;28;20419;-67
2021/05/05 02:40:37;;;;;;;7.82;3.00;;;7.20;99.90;;;;;;5096818;28;20039;-67
2021/05/05 02:43:02;;;;;;;7.07;3.45;;;7.20;99.90;;;;;;5096812;28;20027;-67
2021/05/05 02:45:28;;;;;;;4.82;3.17;;;7.30;99.90;;;;;;5097056;28;20099;-67
2021/05/05 02:47:54;;;;;;;7.15;3.40;;;7.20;99.90;;;;;;5096896;28;20457;-67
2021/05/05 02:50:19;;;;;;;6.05;3.20;;;7.20;99.90;;;;;;5096373;28;20032;-67
2021/05/05 02:52:45;;;;;;;4.15;3.70;;;7.20;99.90;;;;;;5096841;28;20020;-67
2021/05/05 02:55:11;;;;;;;3.65;3.10;;;7.20;99.90;;;;;;5096857;28;20029;-67
2021/05/05 02:57:37;;;;;;;6.00;3.78;;;7.10;99.90;;;;;;5096266;28;20484;-67
2021/05/05 03:00:08;;;;;;;7.25;4.55;;;7.10;99.90;;;;;;5096727;28;20020;-67
2021/05/05 03:02:34;;;;;;;10.20;5.50;;;7.10;99.90;;;;;;5096704;28;20017;-67
2021/05/05 03:04:59;;;;;;;10.85;6.20;;;7.20;99.90;;;;;;5096394;28;20428;-67
2021/05/05 03:07:25;;;;;;;8.45;6.30;;;7.10;99.90;;;;;;5096530;28;20437;-67
2021/05/05 03:09:51;;;;;;;9.70;6.32;;;7.10;99.90;;;;;;5096557;28;20031;-67
2021/05/05 03:12:16;;;;;;;11.85;6.72;;;7.10;99.90;;;;;;5096214;28;20030;-67
2021/05/05 03:14:42;;;;;;;12.25;7.65;;;7.10;99.90;;;;;;5096445;28;20020;-67
2021/05/05 03:17:08;;;;;;;9.68;8.00;;;7.10;99.90;;;;;;5094626;28;20020;-67
2021/05/05 03:19:33;;;;;;;10.70;7.72;;;7.10;99.90;;;;;;5096340;28;20028;-67
2021/05/05 03:22:00;;;;;;;12.27;9.80;;;7.10;99.90;;;;;;5096349;28;20114;-67
2021/05/05 03:24:25;;;;;;;13.00;9.20;;;7.10;99.90;;;;;;5095724;28;20023;-67
2021/05/05 03:26:51;;;;;;;9.95;8.25;;;7.10;99.90;;;;;;5095842;28;20107;-67
2021/05/05 03:29:17;;;;;;;13.30;10.45;;;7.10;99.90;;;;;;5095505;28;20050;-67
2021/05/05 03:31:43;;;;;;;13.63;10.15;;;7.00;99.90;;;;;;5096144;28;20099;-67
2021/05/05 03:34:08;;;;;;;12.75;9.13;;;7.00;99.90;;;;;;5094679;28;20019;-67
2021/05/05 03:36:34;;;;;;;14.98;10.23;;;7.00;99.90;;;;;;5094629;28;20373;-67
2021/05/05 03:39:01;;;;;;;12.43;9.93;;;7.00;99.90;;;;;;5096061;28;20057;-67
2021/05/05 03:41:28;;;;;;;16.23;9.70;;;6.90;99.90;;;;;;5095967;28;20023;-67
2021/05/05 03:43:54;;;;;;;13.55;9.48;;;7.00;99.90;;;;;;5095627;28;20024;-67
2021/05/05 03:46:19;;;;;;;13.98;10.00;;;7.00;99.90;;;;;;5077200;28;20031;-67
2021/05/05 03:48:45;;;;;;;16.30;9.98;;;7.00;99.90;;;;;;5095719;28;20369;-67
2021/05/05 03:51:11;;;;;;;14.30;10.30;;;6.90;99.90;;;;;;5095708;28;20086;-67
2021/05/05 03:53:36;;;;;;;15.93;11.13;;;7.00;99.90;;;;;;5095402;28;20035;-67
2021/05/05 03:56:02;;;;;;;14.88;11.20;;;6.90;99.90;;;;;;5095673;28;20035;-67
2021/05/05 03:58:28;;;;;;;17.80;11.23;;;6.90;99.90;;;;;;5094452;28;20428;-67
2021/05/05 04:00:53;;;;;;;15.40;11.77;;;6.90;99.90;;;;;;5093735;28;20073;-67
2021/05/05 04:03:19;;;;;;;17.10;11.75;;;6.90;99.90;;;;;;5095516;28;20031;-67
2021/05/05 04:05:45;;;;;;;17.45;11.77;;;6.90;99.90;;;;;;5095237;28;20362;-67
2021/05/05 04:08:10;;;;;;;16.63;11.80;;;6.80;99.90;;;;;;5095358;28;20047;-67
2021/05/05 04:10:36;;;;;;;18.33;11.32;;;6.80;99.90;;;;;;5095118;28;20051;-67
2021/05/05 04:13:02;;;;;;;19.08;11.45;;;6.80;99.90;;;;;;5093847;28;20024;-67
2021/05/05 04:15:28;;;;;;;16.23;10.73;;;6.70;99.90;;;;;;5095015;28;20032;-67
2021/05/05 04:17:54;;;;;;;14.32;9.77;;;6.70;99.90;;;;;;5095206;28;20073;-67
2021/05/05 04:20:20;;;;;;;15.73;9.80;;;6.70;99.90;;;;;;5095177;28;20035;-67
2021/05/05 04:22:47;;;;;;;12.50;9.02;;;6.70;99.90;;;;;;5094886;28;20373;-67
2021/05/05 04:25:13;;;;;;;11.10;7.97;;;6.70;99.90;;;;;;5095113;28;20059;-67
2021/05/05 04:27:39;;;;;;;9.98;7.60;;;6.70;99.90;;;;;;5094667;28;20036;-67
2021/05/05 04:30:06;;;;;;;12.18;7.70;;;6.70;99.90;;;;;;5095009;28;20025;-67
2021/05/05 04:32:32;;;;;;;17.00;7.95;;;6.70;99.90;;;;;;5094977;28;20044;-67
2021/05/05 04:34:58;;;;;;;10.25;7.15;;;6.70;99.90;;;;;;5093744;28;20430;-67
2021/05/05 04:37:23;;;;;;;11.50;6.57;;;6.70;99.90;;;;;;5094354;28;20032;-67
2021/05/05 04:39:49;;;;;;;10.05;7.07;;;6.70;99.90;;;;;;5093016;28;20103;-67
2021/05/05 04:42:14;;;;;;;11.43;8.23;;;6.70;99.90;;;;;;5094779;28;20080;-67
2021/05/05 04:44:40;;;;;;;11.23;8.90;;;6.70;99.90;;;;;;5094768;28;20032;-67
2021/05/05 04:47:05;;;;;;;11.65;8.60;;;6.60;99.90;;;;;;5093526;28;20031;-67
2021/05/05 04:49:31;;;;;;;14.73;9.75;;;6.60;99.90;;;;;;5094612;28;20035;-67
2021/05/05 04:51:56;;;;;;;16.02;9.70;;;6.70;99.90;;;;;;5094369;28;20031;-67
2021/05/05 04:54:22;;;;;;;15.57;10.20;;;6.60;99.90;;;;;;5093577;28;20056;-67
2021/05/05 04:56:48;;;;;;;13.60;10.45;;;6.50;99.90;;;;;;5094575;28;20465;-67
2021/05/05 04:59:13;;;;;;;16.00;10.60;;;6.50;99.90;;;;;;5092954;28;20028;-67
2021/05/05 05:01:39;;;;;;;16.27;9.10;;;6.40;99.90;;;;;;5094493;28;20024;-67
2021/05/05 05:04:04;;;;;;;8.73;6.70;;;6.20;99.90;;;;;;5094181;28;20031;-67
2021/05/05 05:06:30;;;;;;;10.20;5.95;;;6.10;99.90;;;;;;5092948;28;20484;-67
2021/05/05 05:08:56;;;;;;;7.90;4.63;;;5.90;99.90;;;;;;5094264;28;20024;-67
2021/05/05 05:11:21;;;;;;;4.50;3.60;;;5.70;99.90;;;;;;5093797;28;20035;-67
2021/05/05 05:13:47;;;;;;;6.30;3.05;;;5.60;99.90;;;;;;5094292;28;20076;-67
2021/05/05 05:16:12;;;;;;;5.45;2.65;;;5.60;99.90;;;;;;5094299;28;20027;-67
2021/05/05 05:18:38;;;;;;;5.10;2.30;;;5.50;99.90;;;;;;5093987;28;20024;-67
2021/05/05 05:21:05;;;;;;;6.40;2.80;;;5.50;99.90;;;;;;5094209;28;20493;-67
2021/05/05 05:23:31;;;;;;;7.63;2.97;;;5.50;99.90;;;;;;5093095;28;20028;-67
2021/05/05 05:25:57;;;;;;;6.85;3.10;;;5.40;99.90;;;;;;5094225;28;20047;-67
2021/05/05 05:28:23;;;;;;;8.60;3.70;;;5.40;99.90;;;;;;5093528;28;20136;-67
2021/05/05 05:30:48;;;;;;;6.90;3.55;;;5.50;99.90;;;;;;5093869;28;20020;-67
2021/05/05 05:33:14;;;;;;;14.63;4.32;;;5.50;99.90;;;;;;5094119;28;20529;-67
2021/05/05 05:35:40;;;;;;;11.02;3.60;;;5.60;99.90;;;;;;5094107;28;20457;-67
2021/05/05 05:38:05;;;;;;;11.38;4.65;;;5.60;99.90;;;;;;5093800;28;20025;-67
2021/05/05 05:40:31;;;;;;;8.93;4.50;;;5.70;99.90;;;;;;5094019;28;20042;-67
2021/05/05 05:42:57;;;;;;;10.23;6.28;;;5.70;99.90;;;;;;5093736;28;20032;-67
2021/05/05 05:45:22;;;;;;;13.10;7.25;;;5.70;99.90;;;;;;5093973;28;20028;-67
2021/05/05 05:47:48;;;;;;;20.55;8.68;;;5.80;99.90;;;;;;5093913;28;20040;-67
2021/05/05 05:50:14;;;;;;;17.05;9.82;;;5.80;99.90;;;;;;5094634;28;20048;-67
2021/05/05 05:52:41;;;;;;;18.52;11.93;;;5.90;99.90;;;;;;5097847;28;20032;-67
2021/05/05 05:55:08;;;;;;;20.33;13.77;;;6.00;99.90;;;;;;5097671;28;20428;-67
2021/05/05 05:57:33;;;;;;;24.67;16.00;;;6.10;99.90;;;;;;5097874;28;20058;-67
2021/05/05 05:59:59;;;;;;;23.75;15.48;;;6.30;99.90;;;;;;5097854;28;20021;-67
2021/05/05 06:02:25;;;;;;;26.10;15.40;;;6.40;99.90;;;;;;5097648;28;20028;-67
2021/05/05 06:04:50;;;;;;;21.00;15.80;;;6.80;99.90;;;;;;5097529;28;20381;-67
2021/05/05 06:07:16;;;;;;;19.48;13.98;;;7.50;99.90;;;;;;5097617;28;20118;-67
2021/05/05 06:09:41;;;;;;;20.85;14.07;;;8.50;99.90;;;;;;5097583;28;20024;-67
2021/05/05 06:12:07;;;;;;;17.67;13.20;;;8.90;99.90;;;;;;5097567;28;20020;-67
2021/05/05 06:14:33;;;;;;;19.58;14.05;;;8.70;99.90;;;;;;5097520;28;20058;-67
2021/05/05 06:16:59;;;;;;;18.40;14.95;;;8.20;99.90;;;;;;5097245;28;20098;-67
2021/05/05 06:19:24;;;;;;;23.42;14.05;;;7.90;99.90;;;;;;5097365;28;20044;-67
2021/05/05 06:21:50;;;;;;;24.45;15.35;;;7.60;99.90;;;;;;5095932;28;20054;-67
2021/05/05 06:24:16;;;;;;;16.88;10.93;;;7.50;99.90;;;;;;5097046;28;20020;-67
2021/05/05 06:26:41;;;;;;;18.27;12.93;;;7.40;99.90;;;;;;5097286;28;20035;-67
2021/05/05 06:29:07;;;;;;;18.15;11.38;;;7.40;99.90;;;;;;5096030;28;20040;-67
2021/05/05 06:31:32;;;;;;;18.38;11.90;;;7.40;99.90;;;;;;5095393;28;20047;-67
2021/05/05 06:33:58;;;;;;;21.13;13.52;;;7.50;99.90;;;;;;5095174;28;20099;-67
2021/05/05 06:36:24;;;;;;;18.80;12.00;;;7.50;99.90;;;;;;5095719;28;20027;-65
2021/05/05 06:38:49;;;;;;;24.05;12.85;;;7.50;99.90;;;;;;5091763;28;20027;-67
2021/05/05 06:41:15;;;;;;;25.00;13.23;;;7.60;99.90;;;;;;5086128;28;20078;-67
2021/05/05 06:43:40;;;;;;;22.00;13.93;;;7.40;99.90;;;;;;5088730;28;20028;-67
2021/05/05 06:46:06;;;;;;;20.40;13.52;;;7.10;99.90;;;;;;5085993;28;20025;-66
2021/05/05 06:48:31;;;;;;;27.55;18.60;;;6.80;99.90;;;;;;5089375;28;20111;-67
2021/05/05 06:50:57;;;;;;;26.85;18.35;;;6.60;99.90;;;;;;5076997;28;20102;-67
2021/05/05 06:53:24;;;;;;;26.40;18.60;;;6.50;99.90;;;;;;5076032;28;20377;-67
2021/05/05 06:55:49;;;;;;;28.20;18.65;;;6.50;99.90;;;;;;5076713;28;20021;-67
2021/05/05 06:58:15;;;;;;;24.40;15.50;;;6.50;99.90;;;;;;5074904;28;20116;-67
2021/05/05 07:00:47;;;;;;;19.13;13.65;;;6.80;99.90;;;;;;5080332;28;20028;-67
2021/05/05 07:03:13;;;;;;;18.60;14.50;;;7.20;99.90;;;;;;5081471;28;20020;-67
2021/05/05 07:05:38;;;;;;;18.02;13.02;;;7.50;99.90;;;;;;5091161;28;20104;-66
2021/05/05 07:08:04;;;;;;;17.25;12.75;;;7.50;99.90;;;;;;5090147;28;20067;-66
2021/05/05 07:10:30;;;;;;;18.92;11.65;;;7.30;99.90;;;;;;5090861;28;20042;-67
2021/05/05 07:12:55;;;;;;;15.63;11.75;;;7.20;99.90;;;;;;5091655;28;20027;-66
2021/05/05 07:15:21;;;;;;;17.30;13.30;;;7.10;99.90;;;;;;5089173;28;20115;-67
2021/05/05 07:17:48;;;;;;;18.80;13.98;;;6.90;99.90;;;;;;5087310;28;20021;-67
2021/05/05 07:20:14;;;;;;;17.20;13.32;;;6.70;99.90;;;;;;5082767;28;20107;-66
2021/05/05 07:22:40;;;;;;;19.13;12.10;;;6.60;99.90;;;;;;5076423;28;20016;-66
2021/05/05 07:25:06;;;;;;;13.82;10.65;;;6.60;99.90;;;;;;5075288;28;20107;-67
2021/05/05 07:27:32;;;;;;;15.15;10.32;;;6.60;99.90;;;;;;5076895;28;20024;-67
2021/05/05 07:29:58;;;;;;;14.38;11.20;;;6.80;99.90;;;;;;5091533;28;20028;-67
2021/05/05 07:32:23;;;;;;;13.70;8.45;;;7.60;99.90;;;;;;5088669;28;20354;-67
2021/05/05 07:34:49;;;;;;;12.48;8.70;;;8.50;99.90;;;;;;5095327;28;20472;-67
2021/05/05 07:37:23;;;;;;;12.90;8.82;;;8.60;99.90;;;;;;5082461;28;20361;-67
2021/05/05 07:40:21;;;;;;;16.98;9.82;;;8.40;99.90;;;;;;5076359;28;20032;-67
2021/05/05 07:43:52;;;;;;;11.75;10.00;;;8.20;99.90;;;;;;5091614;28;20016;-66
2021/05/05 07:45:58;;;;;;;13.18;10.68;;;8.30;99.90;;;;;;5093087;28;20024;-66
2021/05/05 07:48:09;;;;;;;15.35;9.60;;;7.90;99.90;;;;;;5080052;28;20040;-66
2021/05/05 07:50:35;;;;;;;23.70;13.38;;;7.60;99.90;;;;;;5093946;28;20354;-66
2021/05/05 07:53:01;;;;;;;13.35;10.93;;;7.60;99.90;;;;;;5093811;28;20020;-65
2021/05/05 07:55:27;;;;;;;17.50;10.73;;;7.70;99.90;;;;;;5092114;28;20020;-66
2021/05/05 07:57:53;;;;;;;15.00;11.23;;;7.60;99.90;;;;;;5100419;28;20036;-65
2021/05/05 08:00:20;;;;;;;18.50;10.98;;;7.50;99.90;;;;;;5117815;27;20103;-66
2021/05/05 08:02:46;;;;;;;16.23;11.95;;;7.40;99.90;;;;;;5091811;28;20024;-66
2021/05/05 08:05:12;;;;;;;15.88;11.13;;;7.50;99.90;;;;;;5079200;28;20051;-66
2021/05/05 08:07:37;;;;;;;15.65;11.57;;;7.60;99.90;;;;;;5074351;28;20028;-66
2021/05/05 08:10:06;;;;;;;17.45;11.27;;;7.50;99.90;;;;;;5074966;28;20027;-66
2021/05/05 08:12:32;;;;;;;17.00;10.75;;;7.30;99.90;;;;;;5073333;28;20147;-66
2021/05/05 08:14:57;;;;;;;13.75;10.63;;;7.30;99.90;;;;;;5085899;28;20060;-66
2021/05/05 08:17:23;;;;;;;16.77;10.88;;;7.20;99.90;;;;;;5093013;28;20058;-65
2021/05/05 08:19:49;;;;;;;14.23;10.60;;;7.10;99.90;;;;;;5092628;28;20502;-66
2021/05/05 08:22:14;;;;;;;17.13;11.30;;;7.00;99.90;;;;;;5093039;28;20024;-65
2021/05/05 08:24:40;;;;;;;15.27;11.00;;;7.00;99.90;;;;;;5086052;28;20040;-66
2021/05/05 08:27:06;;;;;;;19.88;11.52;;;7.00;99.90;;;;;;5072562;28;20039;-65
2021/05/05 08:29:32;;;;;;;14.63;12.32;;;7.00;99.90;;;;;;5073308;28;20052;-64
2021/05/05 08:31:59;;;;;;;16.20;12.20;;;7.10;99.90;;;;;;5074204;28;20028;-65
2021/05/05 08:34:26;;;;;;;20.83;13.27;;;7.10;99.90;;;;;;5076850;28;20016;-65
2021/05/05 08:36:52;;;;;;;15.25;10.88;;;7.10;99.90;;;;;;5092980;28;20081;-65
2021/05/05 08:39:19;;;;;;;22.95;12.98;;;7.10;99.90;;;;;;5093154;28;20471;-65
2021/05/05 08:41:45;;;;;;;20.80;13.20;;;7.10;99.90;;;;;;5094095;28;20024;-64
2021/05/05 08:44:12;;;;;;;22.55;13.25;;;7.20;99.90;;;;;;5092942;28;20024;-65
2021/05/05 08:46:39;;;;;;;17.70;11.63;;;7.60;99.90;;;;;;5093350;28;20023;-65
2021/05/05 08:49:05;;;;;;;19.20;11.25;;;7.80;99.90;;;;;;5093309;28;20020;-66
2021/05/05 08:51:31;;;;;;;17.67;10.27;;;7.70;99.90;;;;;;5089461;28;20027;-65
2021/05/05 08:53:56;;;;;;;15.45;9.40;;;8.30;99.90;;;;;;5091037;28;20054;-65
2021/05/05 08:56:22;;;;;;;15.05;8.35;;;9.20;99.90;;;;;;5089208;28;20034;-66
2021/05/05 08:58:47;;;;;;;11.05;6.95;;;10.60;99.90;;;;;;5093522;28;20020;-66
2021/05/05 09:01:13;;;;;;;10.63;7.35;;;10.60;99.90;;;;;;5087140;28;20028;-66
2021/05/05 09:03:40;;;;;;;7.80;4.95;;;10.20;99.90;;;;;;5072614;28;20041;-66
2021/05/05 09:06:06;;;;;;;15.40;6.53;;;9.50;99.90;;;;;;5074006;28;20066;-65
2021/05/05 09:08:33;;;;;;;10.65;5.45;;;8.90;99.90;;;;;;5074216;28;20040;-66
2021/05/05 09:11:10;;;;;;;11.52;6.22;;;8.60;99.90;;;;;;5073912;28;20366;-66
2021/05/05 09:13:52;;;;;;;9.68;6.28;;;8.50;99.90;;;;;;5084246;28;20016;-66
2021/05/05 09:16:26;;;;;;;10.40;6.55;;;8.90;99.90;;;;;;5093337;28;20016;-66
2021/05/05 09:18:53;;;;;;;;;;;9.10;99.90;;;;;;5086529;28;20484;-66
2021/05/05 09:21:29;;;;;;;8.25;5.13;;;9.20;99.90;;;;;;5093172;28;19908;-66
2021/05/05 09:24:14;;;;;;;10.43;5.30;;;9.00;99.90;;;;;;5092632;28;20032;-65
2021/05/05 09:26:40;;;;;;;12.80;6.30;;;8.80;99.90;;;;;;5091476;28;20060;-65
2021/05/05 09:29:05;;;;;;;12.57;6.40;;;8.70;99.90;;;;;;5088094;28;20040;-65
2021/05/05 09:31:33;;;;;;;7.57;4.70;;;8.70;99.90;;;;;;5088392;28;20138;-65
2021/05/05 09:34:00;;;;;;;13.13;5.90;;;8.60;99.90;;;;;;5086098;28;20066;-65
2021/05/05 09:36:26;;;;;;;11.02;4.40;;;8.70;99.90;;;;;;5072980;28;20024;-65
2021/05/05 09:38:51;;;;;;;6.95;4.60;;;8.50;99.90;;;;;;5074120;28;20086;-66
2021/05/05 09:41:21;;;;;;;12.73;4.70;;;8.80;99.90;;;;;;5076440;28;20144;-66
2021/05/05 09:43:49;;;;;;;10.27;4.80;;;9.60;99.90;;;;;;5088996;28;20477;-66
2021/05/05 09:46:45;;;;;;;7.95;4.07;;;10.40;99.90;;;;;;5093016;28;20459;-65
2021/05/05 09:49:19;;;;;;;6.55;4.03;;;10.80;99.90;;;;;;5091666;28;20032;-65
2021/05/05 09:51:48;;;;;;;9.95;4.93;;;10.00;99.90;;;;;;5093142;28;20020;-65
2021/05/05 09:54:24;;;;;;;14.20;5.13;;;9.50;99.90;;;;;;5073065;28;20024;-66
2021/05/05 09:56:50;;;;;;;15.52;5.70;;;9.40;99.90;;;;;;5072593;28;20028;-65
2021/05/05 09:59:16;;;;;;;8.07;4.40;;;9.80;99.90;;;;;;5089614;28;20388;-66
2021/05/05 10:01:57;;;;;;;9.57;3.83;;;11.20;99.90;;;;;;5093313;28;20112;-67
2021/05/05 10:04:23;;;;;;;10.00;3.65;;;11.80;99.90;;;;;;5072960;28;20036;-66
2021/05/05 10:06:57;;;;;;;12.15;4.38;;;11.00;99.90;;;;;;5072773;28;20044;-66
2021/05/05 10:09:24;;;;;;;7.32;4.63;;;10.90;99.90;;;;;;5073579;28;20029;-66
2021/05/05 10:11:50;;;;;;;10.70;6.57;;;10.60;99.90;;;;;;5054830;28;20020;-66
2021/05/05 10:14:18;;;;;;;7.78;6.85;;;10.40;99.90;;;;;;5089382;28;20429;-65
2021/05/05 10:16:48;;;;;;;12.00;7.15;;;11.00;99.90;;;;;;5072623;28;20017;-65
2021/05/05 10:19:21;;;;;;;11.77;6.82;;;12.60;99.90;;;;;;5073679;28;20449;-67
2021/05/05 10:22:00;;;;;;;11.88;5.63;;;12.20;99.90;;;;;;5069068;28;20028;-66
2021/05/05 10:24:29;;;;;;;6.78;4.30;;;11.40;99.90;;;;;;5083297;28;20036;-66
2021/05/05 10:26:56;;;;;;;14.45;4.97;;;10.90;99.90;;;;;;5071517;28;20030;-66
2021/05/05 10:29:22;;;;;;;6.18;3.13;;;10.50;99.90;;;;;;5091971;28;20180;-66
2021/05/05 10:31:54;;;;;;;11.73;3.80;;;10.20;99.90;;;;;;5077619;28;20032;-65
2021/05/05 10:34:22;;;;;;;5.95;3.10;;;10.30;99.90;;;;;;5070808;28;20013;-65
2021/05/05 10:36:52;;;;;;;6.35;2.67;;;10.20;99.90;;;;;;5078720;28;20025;-65
2021/05/05 10:42:03;;;;;;;6.68;2.80;;;9.90;99.90;;;;;;5069458;28;20365;-66
2021/05/05 10:44:40;;;;;;;5.45;2.45;;;9.90;99.90;;;;;;5055419;28;20021;-65
2021/05/05 10:47:27;;;;;;;7.28;2.50;;;10.20;99.90;;;;;;5051549;28;20059;-66
2021/05/05 10:55:34;;;;;;;7.50;2.38;;;11.90;99.90;;;;;;5093609;27;20364;-66
2021/05/05 10:58:23;;;;;;;6.40;2.70;;;11.80;99.90;;;;;;5090523;28;20116;-66
2021/05/05 11:03:52;;;;;;;4.05;2.60;;;12.20;99.90;;;;;;5087686;27;20412;-65
2021/05/05 11:06:39;;;;;;;5.35;2.55;;;12.00;99.90;;;;;;5074875;28;20028;-64
2021/05/05 11:11:51;;;;;;;6.63;2.40;;;11.30;99.90;;;;;;5106707;27;20367;-66
2021/05/05 11:17:06;;;;;;;4.80;2.03;;;11.40;99.90;;;;;;5108061;27;20366;-66
2021/05/05 11:19:44;;;;;;;8.65;2.97;;;12.30;99.90;;;;;;5087480;28;20099;-66
2021/05/05 11:24:54;;;;;;;4.18;2.70;;;11.60;99.90;;;;;;5093335;27;20863;-65
2021/05/05 11:27:44;;;;;;;7.25;3.20;;;11.60;99.90;;;;;;5093316;28;20031;-65
2021/05/05 11:30:33;;;;;;;4.00;2.72;;;11.80;99.90;;;;;;5090459;28;20016;-65
2021/05/05 11:32:59;;;;;;;8.00;2.83;;;12.10;99.90;;;;;;5094922;28;20027;-67
2021/05/05 11:35:27;;;;;;;5.93;3.22;;;12.20;99.90;;;;;;5102982;28;20028;-67
2021/05/05 11:38:07;;;;;;;21.27;10.40;;;11.80;99.90;;;;;;5109551;28;20028;-67
2021/05/05 11:40:33;;;;;;;6.03;2.63;;;11.70;99.90;;;;;;5109243;28;20496;-65
2021/05/05 11:42:59;;;;;;;5.18;2.47;;;11.90;99.90;;;;;;5107995;28;20032;-66
2021/05/05 11:45:24;;;;;;;8.25;1.88;;;11.50;99.90;;;;;;5110008;28;20020;-67
2021/05/05 11:47:50;;;;;;;4.38;2.90;;;10.90;99.90;;;;;;5098427;28;20028;-66
2021/05/05 11:50:19;;;;;;;6.28;4.22;;;10.70;99.90;;;;;;5109509;28;20030;-67
2021/05/05 11:52:47;;;;;;;8.07;5.25;;;10.30;99.90;;;;;;5110414;28;20389;-66
2021/05/05 11:55:30;;;;;;;16.42;5.32;;;9.10;99.90;;;;;;5111637;28;20087;-66
2021/05/05 11:57:58;;;;;;;7.63;4.35;;;7.70;99.90;;;;;;5110920;28;20575;-66
2021/05/05 12:00:31;;;;;;;9.65;5.45;;;7.10;99.90;;;;;;5108773;28;20043;-65
2021/05/05 12:03:01;;;;;;;6.80;4.70;;;7.10;99.90;;;;;;5109192;28;20489;-65
2021/05/05 12:05:40;;;;;;;11.75;5.88;;;7.70;99.90;;;;;;5109168;28;20036;-66
2021/05/05 12:08:27;;;;;;;8.32;5.90;;;8.60;99.90;;;;;;5109278;28;20024;-65
2021/05/05 12:10:57;;;;;;;9.75;6.10;;;9.30;99.90;;;;;;5109039;28;20102;-67
2021/05/05 12:13:35;;;;;;;9.13;5.00;;;9.60;99.90;;;;;;5108844;28;20031;-66
2021/05/05 12:16:13;;;;;;;6.10;2.85;;;9.70;99.90;;;;;;5108972;28;20085;-65
2021/05/05 12:18:54;;;;;;;4.78;2.38;;;9.80;99.90;;;;;;5110442;28;20024;-64
2021/05/05 12:21:25;;;;;;;11.10;2.70;;;10.20;99.90;;;;;;5108931;28;20106;-65
2021/05/05 12:23:55;;;;;;;6.85;2.47;;;10.20;99.90;;;;;;5110100;28;20105;-67
2021/05/05 12:26:25;;;;;;;7.47;3.25;;;10.10;99.90;;;;;;5109837;28;20077;-66
2021/05/05 12:28:53;;;;;;;7.47;2.92;;;10.10;99.90;;;;;;5110049;28;20044;-66
2021/05/05 12:31:22;;;;;;;9.90;3.28;;;9.70;99.90;;;;;;5091680;28;20028;-66
2021/05/05 12:33:49;;;;;;;5.18;2.03;;;9.20;99.90;;;;;;5109945;28;20459;-66
2021/05/05 12:36:18;;;;;;;7.78;1.88;;;8.70;99.90;;;;;;5095069;28;20030;-66
2021/05/05 12:38:46;;;;;;;12.38;2.50;;;8.10;99.90;;;;;;5095982;28;20052;-67
2021/05/05 12:41:15;;;;;;;6.45;2.50;;;7.80;99.90;;;;;;5096389;28;20024;-69
2021/05/05 12:43:41;;;;;;;4.03;2.53;;;7.70;99.90;;;;;;5096057;28;20020;-67
2021/05/05 12:46:24;;;;;;;6.35;1.80;;;7.70;99.90;;;;;;5094715;28;20051;-66
2021/05/05 12:48:50;;;;;;;9.25;3.00;;;7.80;99.90;;;;;;5094490;28;20048;-67
2021/05/05 12:51:20;;;;;;;9.98;3.40;;;8.40;99.90;;;;;;5087925;28;20107;-70
2021/05/05 12:54:03;;;;;;;6.95;2.70;;;8.90;99.90;;;;;;5069928;28;20111;-69
2021/05/05 12:56:40;;;;;;;8.10;3.15;;;9.60;99.90;;;;;;5073139;28;20013;-70
2021/05/05 12:59:06;;;;;;;5.68;2.22;;;10.10;99.90;;;;;;5086832;28;20409;-70
2021/05/05 13:01:32;;;;;;;8.40;2.70;;;10.40;99.90;;;;;;5072339;28;20027;-70
2021/05/05 13:03:59;;;;;;;10.25;2.55;;;10.70;99.90;;;;;;5073792;28;20024;-69
2021/05/05 13:06:38;;;;;;;7.55;2.03;;;10.50;99.90;;;;;;5075331;28;20052;-69
2021/05/05 13:09:16;;;;;;;10.50;2.92;;;10.00;99.90;;;;;;5091046;28;20382;-71
2021/05/05 13:11:44;;;;;;;7.72;2.03;;;9.70;99.90;;;;;;5075426;28;20020;-69